Time,TemperatureF,DewpointF,PressureIn,WindDirection,WindDirectionDegrees,WindSpeedMPH,WindSpeedGustMPH,Humidity,HourlyPrecipIn,Conditions,Clouds,dailyrainin,SolarRadiationWatts/m^2,SoftwareType,DateUTC
2013-11-04 00:02:00,59.0,37.0,-100.00,East,80,0.0,0.0,44,0.00,,,0.00,0.000000,,2013-11-04 08:02:00,
2013-11-04 00:12:00,59.0,37.0,-100.00,East,80,0.0,0.0,44,0.00,,,0.00,0.000000,,2013-11-04 08:12:00,
2013-11-04 00:21:00,59.0,37.0,-100.00,East,80,0.0,0.0,44,0.00,,,0.00,0.000000,,2013-11-04 08:21:00,
2013-11-04 00:52:00,59.0,39.0,-100.00,North,0,2.0,4.0,47,0.00,,,0.00,0.000000,,2013-11-04 08:52:00,
2013-11-04 01:02:00,59.0,39.0,-100.00,North,0,2.0,4.0,47,0.00,,,0.00,0.000000,,2013-11-04 09:02:00,
2013-11-04 01:12:00,59.0,39.0,-100.00,North,0,2.0,4.0,47,0.00,,,0.00,0.000000,,2013-11-04 09:12:00,
2013-11-04 01:21:00,59.0,39.0,-100.00,North,0,2.0,4.0,47,0.00,,,0.00,0.000000,,2013-11-04 09:21:00,
2013-11-04 01:53:00,56.0,37.0,-100.00,North,355,0.0,4.0,48,0.00,,,0.00,0.000000,,2013-11-04 09:53:00,
2013-11-04 02:03:00,56.0,37.0,-100.00,North,355,0.0,4.0,48,0.00,,,0.00,0.000000,,2013-11-04 10:03:00,
2013-11-04 02:12:00,56.0,37.0,-100.00,North,355,0.0,4.0,48,0.00,,,0.00,0.000000,,2013-11-04 10:12:00,
2013-11-04 02:23:00,56.0,37.0,-100.00,North,355,0.0,4.0,48,0.00,,,0.00,0.000000,,2013-11-04 10:23:00,
2013-11-04 02:52:00,55.0,33.0,-100.00,NNE,33,0.0,3.0,44,0.00,,,0.00,0.000000,,2013-11-04 10:52:00,
2013-11-04 03:02:00,55.0,33.0,-100.00,NNE,33,0.0,3.0,44,0.00,,,0.00,0.000000,,2013-11-04 11:02:00,
2013-11-04 03:12:00,55.0,33.0,-100.00,NNE,33,0.0,3.0,44,0.00,,,0.00,0.000000,,2013-11-04 11:12:00,
2013-11-04 03:22:00,55.0,33.0,-100.00,NNE,33,0.0,3.0,44,0.00,,,0.00,0.000000,,2013-11-04 11:22:00,
2013-11-04 03:52:00,53.0,35.0,-100.00,NNE,17,0.0,4.0,51,0.00,,,0.00,0.000000,,2013-11-04 11:52:00,
2013-11-04 04:02:00,53.0,35.0,-100.00,NNE,17,0.0,4.0,51,0.00,,,0.00,0.000000,,2013-11-04 12:02:00,
2013-11-04 04:11:00,53.0,35.0,-100.00,NNE,17,0.0,4.0,51,0.00,,,0.00,0.000000,,2013-11-04 12:11:00,
2013-11-04 04:21:00,53.0,35.0,-100.00,NNE,17,0.0,4.0,51,0.00,,,0.00,0.000000,,2013-11-04 12:21:00,
2013-11-04 04:52:00,52.0,42.0,-100.00,NNW,330,0.0,0.0,68,0.00,,,0.00,0.000000,,2013-11-04 12:52:00,
2013-11-04 05:01:00,52.0,42.0,-100.00,NNW,330,0.0,0.0,68,0.00,,,0.00,0.000000,,2013-11-04 13:01:00,
2013-11-04 05:11:00,52.0,42.0,-100.00,NNW,330,0.0,0.0,68,0.00,,,0.00,0.000000,,2013-11-04 13:11:00,
2013-11-04 05:21:00,52.0,42.0,-100.00,NNW,330,0.0,0.0,68,0.00,,,0.00,0.000000,,2013-11-04 13:21:00,
2013-11-04 05:52:00,53.0,39.0,-100.00,NE,47,0.0,0.0,60,0.00,,,0.00,0.000000,,2013-11-04 13:52:00,
2013-11-04 06:02:00,53.0,39.0,-100.00,NE,47,0.0,0.0,60,0.00,,,0.00,0.000000,,2013-11-04 14:02:00,
2013-11-04 06:11:00,53.0,39.0,-100.00,NE,47,0.0,0.0,60,0.00,,,0.00,0.000000,,2013-11-04 14:11:00,
2013-11-04 06:21:00,53.0,39.0,-100.00,NE,47,0.0,0.0,60,0.00,,,0.00,0.000000,,2013-11-04 14:21:00,
2013-11-04 06:52:00,54.0,40.0,-100.00,NW,321,0.0,0.0,58,0.00,,,0.00,12.000000,,2013-11-04 14:52:00,
2013-11-04 07:02:00,54.0,40.0,-100.00,NW,321,0.0,0.0,58,0.00,,,0.00,12.000000,,2013-11-04 15:02:00,
2013-11-04 07:11:00,54.0,40.0,-100.00,NW,321,0.0,0.0,58,0.00,,,0.00,12.000000,,2013-11-04 15:11:00,
2013-11-04 07:21:00,54.0,40.0,-100.00,NW,321,0.0,0.0,58,0.00,,,0.00,12.000000,,2013-11-04 15:21:00,
2013-11-04 07:52:00,57.0,39.0,-100.00,ENE,66,0.0,2.0,51,0.00,,,0.00,133.000000,,2013-11-04 15:52:00,
2013-11-04 08:03:00,57.0,39.0,-100.00,ENE,66,0.0,2.0,51,0.00,,,0.00,133.000000,,2013-11-04 16:03:00,
2013-11-04 08:12:00,57.0,39.0,-100.00,ENE,66,0.0,2.0,51,0.00,,,0.00,133.000000,,2013-11-04 16:12:00,
2013-11-04 08:23:00,57.0,39.0,-100.00,ENE,66,0.0,2.0,51,0.00,,,0.00,133.000000,,2013-11-04 16:23:00,
2013-11-04 09:22:00,67.0,37.0,-100.00,East,83,1.0,4.0,33,0.00,,,0.00,295.000000,,2013-11-04 17:22:00,
2013-11-04 10:12:00,70.0,52.0,-100.00,South,191,3.0,6.0,53,0.00,,,0.00,605.000000,,2013-11-04 18:12:00,
2013-11-04 10:22:00,70.0,52.0,-100.00,South,191,3.0,6.0,53,0.00,,,0.00,605.000000,,2013-11-04 18:22:00,
2013-11-04 10:52:00,76.0,48.0,-100.00,NW,314,1.0,8.0,37,0.00,,,0.00,718.000000,,2013-11-04 18:52:00,
2013-11-04 11:01:00,76.0,48.0,-100.00,NW,314,1.0,8.0,37,0.00,,,0.00,718.000000,,2013-11-04 19:01:00,
2013-11-04 11:12:00,76.0,48.0,-100.00,NW,314,1.0,8.0,37,0.00,,,0.00,718.000000,,2013-11-04 19:12:00,
2013-11-04 11:22:00,76.0,48.0,-100.00,NW,314,1.0,8.0,37,0.00,,,0.00,718.000000,,2013-11-04 19:22:00,
2013-11-04 11:52:00,79.0,43.0,-100.00,SW,229,0.0,7.0,28,0.00,,,0.00,853.000000,,2013-11-04 19:52:00,
2013-11-04 12:01:00,79.0,43.0,-100.00,SW,229,0.0,7.0,28,0.00,,,0.00,853.000000,,2013-11-04 20:01:00,
2013-11-04 12:11:00,79.0,43.0,-100.00,SW,229,0.0,7.0,28,0.00,,,0.00,853.000000,,2013-11-04 20:11:00,
2013-11-04 12:22:00,79.0,43.0,-100.00,SW,229,0.0,7.0,28,0.00,,,0.00,853.000000,,2013-11-04 20:22:00,
2013-11-04 12:52:00,79.0,40.0,-100.00,SSE,163,3.0,8.0,25,0.00,,,0.00,786.000000,,2013-11-04 20:52:00,
2013-11-04 13:03:00,79.0,40.0,-100.00,SSE,163,3.0,8.0,25,0.00,,,0.00,786.000000,,2013-11-04 21:03:00,
2013-11-04 13:12:00,79.0,40.0,-100.00,SSE,163,3.0,8.0,25,0.00,,,0.00,786.000000,,2013-11-04 21:12:00,
2013-11-04 13:21:00,79.0,40.0,-100.00,SSE,163,3.0,8.0,25,0.00,,,0.00,786.000000,,2013-11-04 21:21:00,
2013-11-04 13:54:00,78.0,38.0,-100.00,SSE,167,6.0,11.0,24,0.00,,,0.00,599.000000,,2013-11-04 21:54:00,
2013-11-04 14:04:00,78.0,38.0,-100.00,SSE,167,6.0,11.0,24,0.00,,,0.00,599.000000,,2013-11-04 22:04:00,
2013-11-04 14:13:00,78.0,38.0,-100.00,SSE,167,6.0,11.0,24,0.00,,,0.00,599.000000,,2013-11-04 22:13:00,
2013-11-04 14:23:00,78.0,38.0,-100.00,SSE,167,6.0,11.0,24,0.00,,,0.00,599.000000,,2013-11-04 22:23:00,
2013-11-04 14:53:00,77.0,36.0,-100.00,ESE,120,3.0,11.0,23,0.00,,,0.00,447.000000,,2013-11-04 22:53:00,
2013-11-04 15:02:00,77.0,36.0,-100.00,ESE,120,3.0,11.0,23,0.00,,,0.00,447.000000,,2013-11-04 23:02:00,
2013-11-04 15:12:00,77.0,36.0,-100.00,ESE,120,3.0,11.0,23,0.00,,,0.00,447.000000,,2013-11-04 23:12:00,
2013-11-04 15:22:00,77.0,36.0,-100.00,ESE,120,3.0,11.0,23,0.00,,,0.00,447.000000,,2013-11-04 23:22:00,
2013-11-04 15:53:00,78.0,32.0,-100.00,NW,313,7.0,13.0,19,0.00,,,0.00,203.000000,,2013-11-04 23:53:00,
2013-11-04 16:02:00,78.0,32.0,-100.00,NW,313,7.0,13.0,19,0.00,,,0.00,203.000000,,2013-11-05 00:02:00,
2013-11-04 16:12:00,78.0,32.0,-100.00,NW,313,7.0,13.0,19,0.00,,,0.00,203.000000,,2013-11-05 00:12:00,
2013-11-04 16:22:00,78.0,32.0,-100.00,NW,313,7.0,13.0,19,0.00,,,0.00,203.000000,,2013-11-05 00:22:00,
2013-11-04 16:52:00,75.0,34.0,-100.00,West,278,11.0,16.0,22,0.00,,,0.00,144.000000,,2013-11-05 00:52:00,
2013-11-04 17:02:00,75.0,34.0,-100.00,West,278,11.0,16.0,22,0.00,,,0.00,144.000000,,2013-11-05 01:02:00,
2013-11-04 17:11:00,75.0,34.0,-100.00,West,278,11.0,16.0,22,0.00,,,0.00,144.000000,,2013-11-05 01:11:00,
2013-11-04 17:21:00,75.0,34.0,-100.00,West,278,11.0,16.0,22,0.00,,,0.00,144.000000,,2013-11-05 01:21:00,
2013-11-04 17:52:00,74.0,36.0,-100.00,WNW,286,9.0,18.0,25,0.00,,,-99.99,5.000000,,2013-11-05 01:52:00,
2013-11-04 18:01:00,74.0,36.0,-100.00,WNW,286,9.0,18.0,25,0.00,,,-99.99,5.000000,,2013-11-05 02:01:00,
2013-11-04 18:11:00,74.0,36.0,-100.00,WNW,286,9.0,18.0,25,0.00,,,-99.99,5.000000,,2013-11-05 02:11:00,
2013-11-04 18:22:00,74.0,36.0,-100.00,WNW,286,9.0,18.0,25,0.00,,,-99.99,5.000000,,2013-11-05 02:22:00,
2013-11-04 18:52:00,70.0,38.0,-100.00,WNW,287,13.0,19.0,31,0.00,,,0.00,0.000000,,2013-11-05 02:52:00,
2013-11-04 19:02:00,70.0,38.0,-100.00,WNW,287,13.0,19.0,31,0.00,,,0.00,0.000000,,2013-11-05 03:02:00,
2013-11-04 19:11:00,70.0,38.0,-100.00,WNW,287,13.0,19.0,31,0.00,,,0.00,0.000000,,2013-11-05 03:11:00,
2013-11-04 19:22:00,70.0,38.0,-100.00,WNW,287,13.0,19.0,31,0.00,,,0.00,0.000000,,2013-11-05 03:22:00,
2013-11-04 19:54:00,68.0,39.0,-100.00,NW,321,3.0,17.0,35,0.00,,,0.00,0.000000,,2013-11-05 03:54:00,
2013-11-04 20:03:00,68.0,39.0,-100.00,NW,321,3.0,17.0,35,0.00,,,0.00,0.000000,,2013-11-05 04:03:00,
2013-11-04 20:13:00,68.0,39.0,-100.00,NW,321,3.0,17.0,35,0.00,,,0.00,0.000000,,2013-11-05 04:13:00,
2013-11-04 20:23:00,68.0,39.0,-100.00,NW,321,3.0,17.0,35,0.00,,,0.00,0.000000,,2013-11-05 04:23:00,
2013-11-04 20:53:00,66.0,40.0,-100.00,WSW,248,0.0,6.0,39,0.00,,,0.00,0.000000,,2013-11-05 04:53:00,
2013-11-04 21:03:00,66.0,40.0,-100.00,WSW,248,0.0,6.0,39,0.00,,,0.00,0.000000,,2013-11-05 05:03:00,
2013-11-04 21:13:00,66.0,40.0,-100.00,WSW,248,0.0,6.0,39,0.00,,,0.00,0.000000,,2013-11-05 05:13:00,
2013-11-04 21:23:00,66.0,40.0,-100.00,WSW,248,0.0,6.0,39,0.00,,,0.00,0.000000,,2013-11-05 05:23:00,
2013-11-04 21:54:00,68.0,39.0,-100.00,North,350,8.0,10.0,35,0.00,,,0.00,0.000000,,2013-11-05 05:54:00,
2013-11-04 22:03:00,68.0,39.0,-100.00,North,350,8.0,10.0,35,0.00,,,0.00,0.000000,,2013-11-05 06:03:00,
2013-11-04 22:12:00,68.0,39.0,-100.00,North,350,8.0,10.0,35,0.00,,,0.00,0.000000,,2013-11-05 06:12:00,
2013-11-04 22:21:00,68.0,39.0,-100.00,North,350,8.0,10.0,35,0.00,,,0.00,0.000000,,2013-11-05 06:21:00,
2013-11-04 23:22:00,69.0,30.0,-100.00,NNW,347,14.0,21.0,23,0.00,,,0.00,0.000000,,2013-11-05 07:22:00,
2013-11-04 23:52:00,67.0,28.0,-100.00,NNW,348,16.0,26.0,23,0.00,,,0.00,0.000000,,2013-11-05 07:52:00,